Time,TemperatureF,DewpointF,PressureIn,WindDirection,WindDirectionDegrees,WindSpeedMPH,WindSpeedGustMPH,Humidity,HourlyPrecipIn,Conditions,Clouds,dailyrainin,SoftwareType,DateUTC
2013-08-04 00:03:00,75.0,71.0,-100.00,West,263,2.0,4.0,89,0.00,,,0.00,,2013-08-04 04:03:00,
2013-08-04 00:12:00,75.0,71.0,-100.00,West,263,2.0,4.0,89,0.00,,,0.00,,2013-08-04 04:12:00,
2013-08-04 00:22:00,75.0,71.0,-100.00,West,263,2.0,4.0,89,0.00,,,0.00,,2013-08-04 04:22:00,
2013-08-04 00:32:00,74.0,72.0,-100.00,West,264,1.0,1.0,92,0.00,,,0.00,,2013-08-04 04:32:00,
2013-08-04 00:42:00,74.0,72.0,-100.00,West,264,1.0,1.0,92,0.00,,,0.00,,2013-08-04 04:42:00,
2013-08-04 00:52:00,74.0,72.0,-100.00,South,181,1.0,2.0,93,0.00,,,0.00,,2013-08-04 04:52:00,
2013-08-04 01:02:00,74.0,72.0,-100.00,WSW,253,1.0,2.0,94,0.00,,,0.00,,2013-08-04 05:02:00,
2013-08-04 01:12:00,74.0,72.0,-100.00,WSW,253,1.0,2.0,94,0.00,,,0.00,,2013-08-04 05:12:00,
2013-08-04 01:22:00,74.0,72.0,-100.00,WSW,241,1.0,2.0,94,0.00,,,0.00,,2013-08-04 05:22:00,
2013-08-04 01:32:00,74.0,72.0,-100.00,WSW,241,1.0,2.0,94,0.00,,,0.00,,2013-08-04 05:32:00,
2013-08-04 01:42:00,73.0,71.0,-100.00,SW,227,0.0,1.0,94,0.00,,,0.00,,2013-08-04 05:42:00,
2013-08-04 01:52:00,73.0,71.0,-100.00,SW,227,0.0,1.0,94,0.00,,,0.00,,2013-08-04 05:52:00,
2013-08-04 02:02:00,73.0,71.0,-100.00,WSW,251,2.0,2.0,95,0.00,,,0.00,,2013-08-04 06:02:00,
2013-08-04 02:12:00,73.0,71.0,-100.00,WSW,251,2.0,2.0,95,0.00,,,0.00,,2013-08-04 06:12:00,
2013-08-04 02:22:00,73.0,71.0,-100.00,WSW,251,2.0,2.0,95,0.00,,,0.00,,2013-08-04 06:22:00,
2013-08-04 02:32:00,73.0,72.0,-100.00,WSW,248,2.0,3.0,95,0.00,,,0.00,,2013-08-04 06:32:00,
2013-08-04 02:40:00,73.0,72.0,-100.00,West,275,3.0,4.0,95,0.00,,,0.00,,2013-08-04 06:40:00,
2013-08-04 02:43:00,73.0,72.0,-100.00,WSW,248,2.0,3.0,95,0.00,,,0.00,,2013-08-04 06:43:00,
2013-08-04 02:52:00,73.0,72.0,-100.00,West,265,2.0,3.0,95,0.00,,,0.00,,2013-08-04 06:52:00,
2013-08-04 03:02:00,73.0,72.0,-100.00,West,275,3.0,4.0,95,0.00,,,0.00,,2013-08-04 07:02:00,
2013-08-04 03:12:00,73.0,72.0,-100.00,West,275,3.0,4.0,95,0.00,,,0.00,,2013-08-04 07:12:00,
2013-08-04 03:20:00,73.0,71.0,-100.00,SW,227,1.0,1.0,94,0.00,,,0.00,,2013-08-04 07:20:00,
2013-08-04 03:22:00,73.0,72.0,-100.00,West,275,3.0,4.0,95,0.00,,,0.00,,2013-08-04 07:22:00,
2013-08-04 03:33:00,73.0,72.0,-100.00,West,275,3.0,4.0,95,0.00,,,0.00,,2013-08-04 07:33:00,
2013-08-04 03:53:00,73.0,71.0,-100.00,SW,227,1.0,1.0,94,0.00,,,0.00,,2013-08-04 07:53:00,
2013-08-04 04:02:00,73.0,71.0,-100.00,SW,227,1.0,1.0,94,0.00,,,0.00,,2013-08-04 08:02:00,
2013-08-04 04:12:00,73.0,71.0,-100.00,SW,227,1.0,1.0,94,0.00,,,0.00,,2013-08-04 08:12:00,
2013-08-04 04:33:00,73.0,71.0,-100.00,West,274,1.0,2.0,94,0.00,,,0.00,,2013-08-04 08:33:00,
2013-08-04 04:43:00,74.0,72.0,-100.00,NW,323,1.0,2.0,95,0.00,,,0.00,,2013-08-04 08:43:00,
2013-08-04 04:53:00,74.0,72.0,-100.00,NW,323,1.0,2.0,95,0.00,,,0.00,,2013-08-04 08:53:00,
2013-08-04 05:02:00,74.0,72.0,-100.00,NNW,346,2.0,3.0,95,0.00,,,0.00,,2013-08-04 09:02:00,
2013-08-04 05:12:00,74.0,72.0,-100.00,NNW,346,2.0,3.0,95,0.00,,,0.00,,2013-08-04 09:12:00,
2013-08-04 05:22:00,74.0,72.0,-100.00,NNW,346,2.0,3.0,95,0.00,,,0.00,,2013-08-04 09:22:00,
2013-08-04 05:32:00,74.0,72.0,-100.00,NNW,346,2.0,3.0,95,0.00,,,0.00,,2013-08-04 09:32:00,
2013-08-04 05:43:00,74.0,71.0,-100.00,East,96,1.0,3.0,89,0.00,,,0.00,,2013-08-04 09:43:00,
2013-08-04 05:52:00,74.0,71.0,-100.00,East,96,1.0,3.0,89,0.00,,,0.00,,2013-08-04 09:52:00,
2013-08-04 06:02:00,74.0,71.0,-100.00,East,96,1.0,3.0,89,0.00,,,0.00,,2013-08-04 10:02:00,
2013-08-04 06:12:00,74.0,70.0,-100.00,ENE,69,4.0,6.0,87,0.00,,,0.00,,2013-08-04 10:12:00,
2013-08-04 06:22:00,74.0,70.0,-100.00,ESE,113,1.0,3.0,86,0.00,,,0.00,,2013-08-04 10:22:00,
2013-08-04 06:32:00,74.0,70.0,-100.00,ESE,113,1.0,3.0,86,0.00,,,0.00,,2013-08-04 10:32:00,
2013-08-04 06:43:00,74.0,69.0,-100.00,NNW,329,1.0,3.0,84,0.00,,,0.00,,2013-08-04 10:43:00,
2013-08-04 06:53:00,74.0,69.0,-100.00,NNW,329,1.0,3.0,84,0.00,,,0.00,,2013-08-04 10:53:00,
2013-08-04 07:02:00,74.0,68.0,-100.00,ENE,64,3.0,5.0,83,0.00,,,0.00,,2013-08-04 11:02:00,
2013-08-04 07:12:00,74.0,68.0,-100.00,ENE,64,3.0,5.0,83,0.00,,,0.00,,2013-08-04 11:12:00,
2013-08-04 07:22:00,74.0,68.0,-100.00,ENE,73,4.0,6.0,82,0.00,,,0.00,,2013-08-04 11:22:00,
2013-08-04 07:32:00,74.0,68.0,-100.00,ENE,73,4.0,6.0,82,0.00,,,0.00,,2013-08-04 11:32:00,
2013-08-04 07:42:00,74.0,68.0,-100.00,ENE,73,4.0,6.0,82,0.00,,,0.00,,2013-08-04 11:42:00,
2013-08-04 07:53:00,74.0,68.0,-100.00,NE,54,4.0,6.0,81,0.00,,,0.00,,2013-08-04 11:53:00,
2013-08-04 08:02:00,74.0,67.0,-100.00,ENE,68,6.0,11.0,81,0.00,,,0.00,,2013-08-04 12:02:00,
2013-08-04 08:13:00,74.0,67.0,-100.00,ENE,68,6.0,11.0,81,0.00,,,0.00,,2013-08-04 12:13:00,
2013-08-04 08:22:00,74.0,67.0,-100.00,ENE,68,6.0,11.0,81,0.00,,,0.00,,2013-08-04 12:22:00,
2013-08-04 08:33:00,74.0,67.0,-100.00,East,79,4.0,6.0,81,0.00,,,0.00,,2013-08-04 12:33:00,
2013-08-04 08:43:00,74.0,67.0,-100.00,ENE,73,3.0,5.0,79,0.00,,,0.00,,2013-08-04 12:43:00,
2013-08-04 08:53:00,74.0,67.0,-100.00,ENE,73,3.0,5.0,79,0.00,,,0.00,,2013-08-04 12:53:00,
2013-08-04 09:02:00,74.0,66.0,-100.00,ENE,78,5.0,9.0,77,0.00,,,0.00,,2013-08-04 13:02:00,
2013-08-04 09:13:00,74.0,66.0,-100.00,ENE,78,5.0,9.0,77,0.00,,,0.00,,2013-08-04 13:13:00,
2013-08-04 09:22:00,74.0,65.0,-100.00,ENE,78,4.0,7.0,73,0.00,,,0.00,,2013-08-04 13:22:00,
2013-08-04 09:32:00,74.0,65.0,-100.00,ENE,78,4.0,7.0,73,0.00,,,0.00,,2013-08-04 13:32:00,
2013-08-04 09:43:00,74.0,66.0,-100.00,East,79,4.0,8.0,74,0.00,,,0.00,,2013-08-04 13:43:00,
2013-08-04 09:52:00,74.0,66.0,-100.00,East,79,4.0,8.0,74,0.00,,,0.00,,2013-08-04 13:52:00,
2013-08-04 10:02:00,75.0,66.0,-100.00,ENE,73,3.0,6.0,72,0.00,,,0.00,,2013-08-04 14:02:00,
2013-08-04 10:12:00,75.0,66.0,-100.00,ENE,73,3.0,6.0,72,0.00,,,0.00,,2013-08-04 14:12:00,
2013-08-04 10:22:00,76.0,65.0,-100.00,ENE,71,3.0,5.0,69,0.00,,,0.00,,2013-08-04 14:22:00,
2013-08-04 10:33:00,76.0,65.0,-100.00,ENE,71,3.0,5.0,69,0.00,,,0.00,,2013-08-04 14:33:00,
2013-08-04 10:43:00,76.0,65.0,-100.00,ENE,71,3.0,5.0,69,0.00,,,0.00,,2013-08-04 14:43:00,
2013-08-04 10:53:00,78.0,64.0,-100.00,ENE,73,5.0,9.0,61,0.00,,,0.00,,2013-08-04 14:53:00,
2013-08-04 11:02:00,77.0,64.0,-100.00,East,85,4.0,6.0,64,0.00,,,0.00,,2013-08-04 15:02:00,
2013-08-04 11:12:00,77.0,64.0,-100.00,East,85,4.0,6.0,64,0.00,,,0.00,,2013-08-04 15:12:00,
2013-08-04 11:22:00,79.0,63.0,-100.00,ENE,71,5.0,7.0,58,0.00,,,0.00,,2013-08-04 15:22:00,
2013-08-04 11:32:00,79.0,63.0,-100.00,ENE,71,5.0,7.0,58,0.00,,,0.00,,2013-08-04 15:32:00,
2013-08-04 11:43:00,81.0,65.0,-100.00,East,100,3.0,4.0,59,0.00,,,0.00,,2013-08-04 15:43:00,
2013-08-04 11:53:00,81.0,65.0,-100.00,East,100,3.0,4.0,59,0.00,,,0.00,,2013-08-04 15:53:00,
2013-08-04 12:02:00,81.0,62.0,-100.00,ENE,73,4.0,8.0,53,0.00,,,0.00,,2013-08-04 16:02:00,
2013-08-04 12:12:00,81.0,62.0,-100.00,ENE,73,4.0,8.0,53,0.00,,,0.00,,2013-08-04 16:12:00,
2013-08-04 12:33:00,81.0,64.0,-100.00,East,82,4.0,7.0,57,0.00,,,0.00,,2013-08-04 16:33:00,
2013-08-04 12:42:00,83.0,58.0,-100.00,ENE,76,3.0,6.0,43,0.00,,,0.00,,2013-08-04 16:42:00,
2013-08-04 12:53:00,83.0,58.0,-100.00,ENE,76,3.0,6.0,43,0.00,,,0.00,,2013-08-04 16:53:00,
2013-08-04 13:02:00,83.0,61.0,-100.00,ENE,66,6.0,8.0,48,0.00,,,0.00,,2013-08-04 17:02:00,
2013-08-04 13:12:00,83.0,61.0,-100.00,ENE,66,6.0,8.0,48,0.00,,,0.00,,2013-08-04 17:12:00,
2013-08-04 13:22:00,83.0,60.0,-100.00,East,80,6.0,10.0,46,0.00,,,0.00,,2013-08-04 17:22:00,
2013-08-04 13:32:00,83.0,60.0,-100.00,East,80,6.0,10.0,46,0.00,,,0.00,,2013-08-04 17:32:00,
2013-08-04 13:43:00,83.0,60.0,-100.00,East,80,6.0,10.0,46,0.00,,,0.00,,2013-08-04 17:43:00,
2013-08-04 13:53:00,83.0,58.0,-100.00,ENE,66,6.0,9.0,44,0.00,,,0.00,,2013-08-04 17:53:00,
2013-08-04 14:02:00,82.0,57.0,-100.00,ENE,76,4.0,7.0,42,0.00,,,0.00,,2013-08-04 18:02:00,
2013-08-04 14:12:00,82.0,57.0,-100.00,ENE,76,4.0,7.0,42,0.00,,,0.00,,2013-08-04 18:12:00,
2013-08-04 14:23:00,82.0,57.0,-100.00,ENE,76,4.0,7.0,42,0.00,,,0.00,,2013-08-04 18:23:00,
2013-08-04 14:33:00,83.0,60.0,-100.00,East,79,5.0,7.0,47,0.00,,,0.00,,2013-08-04 18:33:00,
2013-08-04 14:43:00,83.0,61.0,-100.00,East,85,6.0,9.0,46,0.00,,,0.00,,2013-08-04 18:43:00,
2013-08-04 14:52:00,83.0,61.0,-100.00,East,85,6.0,9.0,46,0.00,,,0.00,,2013-08-04 18:52:00,
2013-08-04 15:02:00,83.0,62.0,-100.00,NE,48,3.0,5.0,50,0.00,,,0.00,,2013-08-04 19:02:00,
2013-08-04 15:12:00,83.0,62.0,-100.00,NE,48,3.0,5.0,50,0.00,,,0.00,,2013-08-04 19:12:00,
2013-08-04 15:22:00,83.0,62.0,-100.00,NE,48,3.0,5.0,50,0.00,,,0.00,,2013-08-04 19:22:00,
2013-08-04 15:33:00,81.0,61.0,-100.00,East,83,4.0,7.0,50,0.00,,,0.00,,2013-08-04 19:33:00,
2013-08-04 15:44:00,81.0,61.0,-100.00,East,83,4.0,7.0,50,0.00,,,0.00,,2013-08-04 19:44:00,
2013-08-04 15:53:00,81.0,61.0,-100.00,East,83,4.0,7.0,50,0.00,,,0.00,,2013-08-04 19:53:00,
2013-08-04 16:02:00,85.0,60.0,-100.00,ENE,73,5.0,8.0,44,0.00,,,0.00,,2013-08-04 20:02:00,
2013-08-04 16:13:00,85.0,60.0,-100.00,ENE,73,5.0,8.0,44,0.00,,,0.00,,2013-08-04 20:13:00,
2013-08-04 16:22:00,85.0,60.0,-100.00,ENE,73,5.0,8.0,44,0.00,,,0.00,,2013-08-04 20:22:00,
2013-08-04 16:33:00,85.0,60.0,-100.00,ENE,73,5.0,8.0,44,0.00,,,0.00,,2013-08-04 20:33:00,
2013-08-04 16:43:00,84.0,60.0,-100.00,ENE,68,4.0,6.0,43,0.00,,,0.00,,2013-08-04 20:43:00,
2013-08-04 16:53:00,84.0,60.0,-100.00,ENE,68,4.0,6.0,43,0.00,,,0.00,,2013-08-04 20:53:00,
2013-08-04 17:02:00,85.0,59.0,-100.00,ENE,71,3.0,5.0,41,0.00,,,0.00,,2013-08-04 21:02:00,
2013-08-04 17:12:00,85.0,59.0,-100.00,ENE,71,3.0,5.0,41,0.00,,,0.00,,2013-08-04 21:12:00,
2013-08-04 17:22:00,85.0,59.0,-100.00,ENE,71,3.0,5.0,41,0.00,,,0.00,,2013-08-04 21:22:00,
2013-08-04 17:32:00,86.0,57.0,-100.00,East,99,3.0,6.0,38,0.00,,,0.00,,2013-08-04 21:32:00,
2013-08-04 17:43:00,85.0,56.0,-100.00,NE,54,3.0,5.0,37,0.00,,,0.00,,2013-08-04 21:43:00,
2013-08-04 17:53:00,85.0,56.0,-100.00,NE,54,3.0,5.0,37,0.00,,,0.00,,2013-08-04 21:53:00,
2013-08-04 18:02:00,86.0,54.0,-100.00,ENE,73,3.0,6.0,34,0.00,,,0.00,,2013-08-04 22:02:00,
2013-08-04 18:12:00,86.0,54.0,-100.00,ENE,73,3.0,6.0,34,0.00,,,0.00,,2013-08-04 22:12:00,
2013-08-04 18:22:00,85.0,59.0,-100.00,East,90,3.0,5.0,41,0.00,,,0.00,,2013-08-04 22:22:00,
2013-08-04 18:32:00,85.0,59.0,-100.00,East,90,3.0,5.0,41,0.00,,,0.00,,2013-08-04 22:32:00,
2013-08-04 18:43:00,86.0,59.0,-100.00,ESE,103,2.0,5.0,40,0.00,,,0.00,,2013-08-04 22:43:00,
2013-08-04 18:53:00,86.0,59.0,-100.00,ESE,103,2.0,5.0,40,0.00,,,0.00,,2013-08-04 22:53:00,
2013-08-04 19:02:00,88.0,59.0,-100.00,ESE,109,1.0,2.0,38,0.00,,,0.00,,2013-08-04 23:02:00,
2013-08-04 19:12:00,88.0,59.0,-100.00,ESE,109,1.0,2.0,38,0.00,,,0.00,,2013-08-04 23:12:00,
2013-08-04 19:23:00,88.0,59.0,-100.00,ESE,109,1.0,2.0,38,0.00,,,0.00,,2013-08-04 23:23:00,
2013-08-04 19:32:00,88.0,59.0,-100.00,ESE,109,1.0,2.0,38,0.00,,,0.00,,2013-08-04 23:32:00,
2013-08-04 19:43:00,80.0,60.0,-100.00,SE,133,1.0,2.0,51,0.00,,,0.00,,2013-08-04 23:43:00,
2013-08-04 19:53:00,80.0,60.0,-100.00,SE,133,1.0,2.0,51,0.00,,,0.00,,2013-08-04 23:53:00,
2013-08-04 20:02:00,78.0,61.0,-100.00,SSE,148,0.0,1.0,55,0.00,,,0.00,,2013-08-05 00:02:00,
2013-08-04 20:12:00,78.0,61.0,-100.00,SSE,148,0.0,1.0,55,0.00,,,0.00,,2013-08-05 00:12:00,
2013-08-04 20:22:00,76.0,64.0,-100.00,SW,220,1.0,1.0,66,0.00,,,0.00,,2013-08-05 00:22:00,
2013-08-04 20:33:00,76.0,64.0,-100.00,SW,220,1.0,1.0,66,0.00,,,0.00,,2013-08-05 00:33:00,
2013-08-04 20:42:00,74.0,62.0,-100.00,SSW,208,1.0,2.0,67,0.00,,,0.00,,2013-08-05 00:42:00,
2013-08-04 20:53:00,74.0,62.0,-100.00,SSW,208,1.0,2.0,67,0.00,,,0.00,,2013-08-05 00:53:00,
2013-08-04 21:02:00,72.0,63.0,-100.00,SW,236,1.0,1.0,75,0.00,,,0.00,,2013-08-05 01:02:00,
2013-08-04 21:12:00,72.0,63.0,-100.00,SW,236,1.0,1.0,75,0.00,,,0.00,,2013-08-05 01:12:00,
2013-08-04 21:22:00,72.0,63.0,-100.00,WSW,244,3.0,3.0,74,0.00,,,0.00,,2013-08-05 01:22:00,
2013-08-04 21:33:00,72.0,63.0,-100.00,WSW,244,3.0,3.0,74,0.00,,,0.00,,2013-08-05 01:33:00,
2013-08-04 21:43:00,70.0,62.0,-100.00,WSW,248,1.0,2.0,75,0.00,,,0.00,,2013-08-05 01:43:00,
2013-08-04 21:52:00,70.0,62.0,-100.00,WSW,248,1.0,2.0,75,0.00,,,0.00,,2013-08-05 01:52:00,
2013-08-04 22:02:00,69.0,62.0,-100.00,WSW,246,1.0,2.0,78,0.00,,,0.00,,2013-08-05 02:02:00,
2013-08-04 22:12:00,69.0,62.0,-100.00,WSW,246,1.0,2.0,78,0.00,,,0.00,,2013-08-05 02:12:00,
2013-08-04 22:22:00,69.0,63.0,-100.00,SW,224,1.0,2.0,82,0.00,,,0.00,,2013-08-05 02:22:00,
2013-08-04 22:33:00,69.0,63.0,-100.00,SW,224,1.0,2.0,82,0.00,,,0.00,,2013-08-05 02:33:00,
2013-08-04 22:43:00,69.0,63.0,-100.00,WSW,254,2.0,2.0,81,0.00,,,0.00,,2013-08-05 02:43:00,
2013-08-04 22:53:00,69.0,63.0,-100.00,WSW,254,2.0,2.0,81,0.00,,,0.00,,2013-08-05 02:53:00,
2013-08-04 23:02:00,69.0,63.0,-100.00,WSW,246,2.0,2.0,83,0.00,,,0.00,,2013-08-05 03:02:00,
2013-08-04 23:12:00,69.0,63.0,-100.00,WSW,246,2.0,2.0,83,0.00,,,0.00,,2013-08-05 03:12:00,
2013-08-04 23:22:00,69.0,64.0,-100.00,WSW,254,2.0,3.0,85,0.00,,,0.00,,2013-08-05 03:22:00,
2013-08-04 23:32:00,69.0,64.0,-100.00,WSW,254,2.0,3.0,85,0.00,,,0.00,,2013-08-05 03:32:00,
2013-08-04 23:42:00,69.0,64.0,-100.00,WSW,254,2.0,3.0,85,0.00,,,0.00,,2013-08-05 03:42:00,
2013-08-04 23:52:00,68.0,64.0,-100.00,WSW,257,2.0,2.0,86,0.00,,,0.00,,2013-08-05 03:52:00,